Time;durP1;ratioP1;P1;durP2;ratioP2;P2;SDS_P1;SDS_P2;PMS_P1;PMS_P2;Temp;Humidity;BMP_temperature;BMP_pressure;BME280_temperature;BME280_humidity;BME280_pressure;Samples;Min_cycle;Max_cycle;Signal;HPM_P1;HPM_P2
2020/12/28 00:02:09;;;;;;;0.40;0.40;;;3.30;99.90;;;;;;4384011;32;20069;-74
2020/12/28 00:04:36;;;;;;;0.60;0.60;;;3.30;99.90;;;;;;4387773;32;20122;-74
2020/12/28 00:07:02;;;;;;;0.43;0.43;;;3.30;99.90;;;;;;4396943;32;20069;-74
2020/12/28 00:09:28;;;;;;;0.85;0.85;;;3.30;99.90;;;;;;4398992;32;20081;-74
2020/12/28 00:11:55;;;;;;;0.30;0.30;;;3.20;99.90;;;;;;4398622;32;20240;-74
2020/12/28 00:14:21;;;;;;;0.50;0.50;;;3.30;99.90;;;;;;4398214;32;20114;-74
2020/12/28 00:16:47;;;;;;;0.45;0.45;;;3.20;99.90;;;;;;4399016;32;20070;-74
2020/12/28 00:19:13;;;;;;;0.40;0.40;;;3.20;99.90;;;;;;4384480;32;20082;-74
2020/12/28 00:21:38;;;;;;;0.30;0.30;;;3.20;99.90;;;;;;4383678;32;20066;-73
2020/12/28 00:24:04;;;;;;;1.37;1.02;;;3.20;99.90;;;;;;4384024;32;20066;-74
2020/12/28 00:26:36;;;;;;;6.12;1.12;;;3.20;99.90;;;;;;4383803;32;20067;-73
2020/12/28 00:29:01;;;;;;;0.50;0.50;;;3.10;99.90;;;;;;4383525;32;20422;-74
2020/12/28 00:31:27;;;;;;;2.62;0.70;;;3.10;99.90;;;;;;4383975;32;20066;-74
2020/12/28 00:33:52;;;;;;;0.37;0.37;;;3.20;99.90;;;;;;4383769;32;20432;-74
2020/12/28 00:36:18;;;;;;;0.40;0.40;;;3.10;99.90;;;;;;4384748;32;20074;-74
2020/12/28 00:38:43;;;;;;;0.40;0.40;;;3.20;99.90;;;;;;4383524;32;20199;-74
2020/12/28 00:41:11;;;;;;;0.50;0.50;;;3.20;99.90;;;;;;4383040;32;20105;-74
2020/12/28 00:43:36;;;;;;;0.30;0.30;;;3.10;99.90;;;;;;4383350;32;20419;-74
2020/12/28 00:46:06;;;;;;;0.40;0.40;;;3.10;99.90;;;;;;4383715;32;20133;-74
2020/12/28 00:48:31;;;;;;;0.40;0.40;;;3.10;99.90;;;;;;4384846;32;20082;-74
2020/12/28 00:50:57;;;;;;;0.52;0.52;;;3.10;99.90;;;;;;4383965;32;20075;-74
2020/12/28 00:53:22;;;;;;;0.50;0.50;;;3.10;99.90;;;;;;4383900;32;20579;-74
2020/12/28 00:55:48;;;;;;;0.40;0.40;;;3.10;99.90;;;;;;4383193;32;20066;-74
2020/12/28 00:58:13;;;;;;;1.20;0.95;;;3.20;99.90;;;;;;4383272;32;20074;-74
2020/12/28 01:00:39;;;;;;;0.50;0.50;;;3.20;99.90;;;;;;4385587;32;20074;-74
2020/12/28 01:03:04;;;;;;;0.30;0.30;;;3.10;99.90;;;;;;4386903;32;20503;-74
2020/12/28 01:05:29;;;;;;;1.20;0.98;;;3.10;99.90;;;;;;4388182;32;20074;-74
2020/12/28 01:07:55;;;;;;;0.55;0.55;;;3.10;99.90;;;;;;4401471;32;20063;-74
2020/12/28 01:10:20;;;;;;;0.52;0.52;;;3.10;99.90;;;;;;4400626;32;20078;-73
2020/12/28 01:12:46;;;;;;;1.65;1.20;;;3.10;99.90;;;;;;4401511;32;20062;-73
2020/12/28 01:15:11;;;;;;;0.40;0.40;;;3.00;99.90;;;;;;4402112;32;20071;-74
2020/12/28 01:17:37;;;;;;;0.50;0.50;;;3.00;99.90;;;;;;4396595;32;20079;-74
2020/12/28 01:20:03;;;;;;;0.57;0.57;;;3.00;99.90;;;;;;4385935;32;20078;-74
2020/12/28 01:22:30;;;;;;;0.55;0.55;;;3.00;99.90;;;;;;4385380;32;20118;-74
2020/12/28 01:24:55;;;;;;;0.60;0.60;;;3.10;99.90;;;;;;4385306;32;20078;-74
2020/12/28 01:27:21;;;;;;;0.60;0.60;;;3.10;99.90;;;;;;4385412;32;20418;-74
2020/12/28 01:29:46;;;;;;;0.50;0.50;;;3.10;99.90;;;;;;4385687;32;20091;-74
2020/12/28 01:32:12;;;;;;;0.60;0.60;;;3.20;99.90;;;;;;4386911;32;20062;-74
2020/12/28 01:34:37;;;;;;;0.50;0.50;;;3.20;99.90;;;;;;4385764;32;20085;-74
2020/12/28 01:37:03;;;;;;;0.45;0.45;;;3.20;99.90;;;;;;4386079;32;20058;-74
2020/12/28 01:39:28;;;;;;;0.62;0.62;;;3.20;99.90;;;;;;4385387;32;20140;-74
2020/12/28 01:41:53;;;;;;;0.75;0.75;;;3.20;99.90;;;;;;4385097;32;20120;-74
2020/12/28 01:44:19;;;;;;;0.60;0.60;;;3.20;99.90;;;;;;4385266;32;20523;-73
2020/12/28 01:46:44;;;;;;;0.35;0.35;;;3.00;99.90;;;;;;4386057;32;20132;-73
2020/12/28 01:49:10;;;;;;;0.40;0.40;;;3.00;99.90;;;;;;4385209;32;20067;-74
2020/12/28 01:51:36;;;;;;;0.30;0.30;;;3.00;99.90;;;;;;4385990;32;20126;-73
2020/12/28 01:54:03;;;;;;;0.90;0.80;;;2.90;99.90;;;;;;4384143;32;20526;-74
2020/12/28 01:56:30;;;;;;;0.40;0.40;;;2.90;99.90;;;;;;4385334;32;20493;-74
2020/12/28 01:58:56;;;;;;;1.55;0.82;;;3.00;99.90;;;;;;4386215;32;20125;-73
2020/12/28 02:01:23;;;;;;;0.50;0.50;;;2.90;99.90;;;;;;4384954;32;20078;-74
2020/12/28 02:03:49;;;;;;;0.50;0.50;;;2.80;99.90;;;;;;4385492;32;20078;-74
2020/12/28 02:06:14;;;;;;;0.37;0.37;;;2.80;99.90;;;;;;4392545;32;20524;-74
2020/12/28 02:08:40;;;;;;;0.98;0.93;;;2.80;99.90;;;;;;4400379;32;20104;-74
2020/12/28 02:11:06;;;;;;;0.60;0.60;;;2.80;99.90;;;;;;4399442;32;20082;-74
2020/12/28 02:13:32;;;;;;;0.50;0.50;;;2.80;99.90;;;;;;4401134;32;20425;-74
2020/12/28 02:15:57;;;;;;;0.85;0.85;;;2.70;99.90;;;;;;4400808;32;20065;-74
2020/12/28 02:18:23;;;;;;;0.80;0.73;;;2.80;99.90;;;;;;4391676;32;20074;-74
2020/12/28 02:20:49;;;;;;;0.50;0.50;;;2.80;99.90;;;;;;4385360;32;20080;-74
2020/12/28 02:23:14;;;;;;;0.43;0.43;;;2.90;99.90;;;;;;4384303;32;20082;-74
2020/12/28 02:25:40;;;;;;;0.62;0.62;;;3.00;99.90;;;;;;4384548;32;20082;-74
2020/12/28 02:28:05;;;;;;;0.40;0.40;;;2.90;99.90;;;;;;4385456;32;20070;-74
2020/12/28 02:30:31;;;;;;;0.43;0.43;;;2.90;99.90;;;;;;4384238;32;20193;-74
2020/12/28 02:32:56;;;;;;;0.35;0.35;;;2.80;99.90;;;;;;4385250;32;20080;-74
2020/12/28 02:35:22;;;;;;;0.73;0.73;;;2.90;99.90;;;;;;4385025;32;20109;-74
2020/12/28 02:37:47;;;;;;;0.40;0.40;;;2.90;99.90;;;;;;4384712;32;20079;-74
2020/12/28 02:40:13;;;;;;;0.37;0.37;;;2.90;99.90;;;;;;4384006;32;20152;-73
2020/12/28 02:42:38;;;;;;;0.30;0.30;;;2.80;99.90;;;;;;4385719;32;20070;-74
2020/12/28 02:45:04;;;;;;;0.30;0.30;;;2.80;99.90;;;;;;4384962;32;20564;-74
2020/12/28 02:47:30;;;;;;;0.50;0.50;;;2.80;99.90;;;;;;4385224;32;20078;-74
2020/12/28 02:49:55;;;;;;;0.57;0.57;;;2.80;99.90;;;;;;4384547;32;20066;-74
2020/12/28 02:52:21;;;;;;;1.27;0.80;;;2.70;99.90;;;;;;4383952;32;20062;-74
2020/12/28 02:54:46;;;;;;;0.30;0.30;;;2.70;99.90;;;;;;4384302;32;20071;-74
2020/12/28 02:57:12;;;;;;;0.30;0.30;;;2.70;99.90;;;;;;4383886;32;20492;-74
2020/12/28 02:59:37;;;;;;;0.30;0.30;;;2.70;99.90;;;;;;4384984;32;20073;-74
2020/12/28 03:02:03;;;;;;;1.17;1.05;;;2.70;99.90;;;;;;4384418;32;20086;-74
2020/12/28 03:04:28;;;;;;;0.40;0.40;;;2.70;99.90;;;;;;4385088;32;20491;-74
2020/12/28 03:06:53;;;;;;;0.60;0.60;;;2.70;99.90;;;;;;4396579;32;20070;-74
2020/12/28 03:09:19;;;;;;;0.75;0.75;;;2.60;99.90;;;;;;4401011;32;20433;-74
2020/12/28 03:11:45;;;;;;;0.40;0.40;;;2.60;99.90;;;;;;4400003;32;20077;-74
2020/12/28 03:14:10;;;;;;;1.10;0.60;;;2.60;99.90;;;;;;4399241;32;20065;-74
2020/12/28 03:16:36;;;;;;;0.60;0.60;;;2.60;99.90;;;;;;4400013;32;20121;-74
2020/12/28 03:19:01;;;;;;;1.30;1.20;;;2.70;99.90;;;;;;4387276;32;20066;-73
2020/12/28 03:21:26;;;;;;;0.47;0.47;;;2.70;99.90;;;;;;4384450;32;20074;-74
2020/12/28 03:23:52;;;;;;;0.88;0.85;;;2.80;99.90;;;;;;4383730;32;20074;-74
2020/12/28 03:26:17;;;;;;;0.40;0.40;;;2.70;99.90;;;;;;4383768;32;20134;-74
2020/12/28 03:28:43;;;;;;;0.40;0.40;;;2.70;99.90;;;;;;4384510;32;20064;-74
2020/12/28 03:31:08;;;;;;;0.40;0.40;;;2.70;99.90;;;;;;4384311;32;20073;-74
2020/12/28 03:33:34;;;;;;;0.60;0.60;;;2.80;99.90;;;;;;4384148;32;20062;-74
2020/12/28 03:35:59;;;;;;;0.45;0.45;;;2.70;99.90;;;;;;4384306;32;20086;-74
2020/12/28 03:38:25;;;;;;;0.77;0.77;;;2.80;99.90;;;;;;4384535;32;20121;-74
2020/12/28 03:40:50;;;;;;;0.50;0.50;;;2.80;99.90;;;;;;4383502;32;20499;-73
2020/12/28 03:43:16;;;;;;;0.30;0.30;;;2.80;99.90;;;;;;4383386;32;20090;-74
2020/12/28 03:45:41;;;;;;;0.60;0.60;;;2.90;99.90;;;;;;4384000;32;20504;-74
2020/12/28 03:48:07;;;;;;;0.50;0.50;;;3.00;99.90;;;;;;4384438;32;20090;-74
2020/12/28 03:50:32;;;;;;;0.43;0.43;;;3.00;99.90;;;;;;4383436;32;20143;-74
2020/12/28 03:52:58;;;;;;;1.95;0.98;;;3.00;99.90;;;;;;4383962;32;20082;-74
2020/12/28 03:55:23;;;;;;;0.50;0.50;;;3.10;99.90;;;;;;4383304;32;20418;-74
2020/12/28 03:57:49;;;;;;;0.43;0.43;;;3.00;99.90;;;;;;4383813;32;20148;-74
2020/12/28 04:00:14;;;;;;;0.73;0.73;;;3.00;99.90;;;;;;4384905;32;20162;-74
2020/12/28 04:02:40;;;;;;;0.32;0.32;;;3.00;99.90;;;;;;4383609;32;20480;-74
2020/12/28 04:05:06;;;;;;;0.47;0.47;;;3.00;99.90;;;;;;4384360;32;20067;-74
2020/12/28 04:07:31;;;;;;;0.80;0.80;;;2.90;99.90;;;;;;4398841;32;20079;-74
2020/12/28 04:09:57;;;;;;;0.40;0.40;;;2.90;99.90;;;;;;4398965;32;20074;-74
2020/12/28 04:12:22;;;;;;;0.35;0.35;;;3.00;99.90;;;;;;4398226;32;20127;-74
2020/12/28 04:14:48;;;;;;;0.50;0.50;;;3.00;99.90;;;;;;4398932;32;20074;-73
2020/12/28 04:17:13;;;;;;;0.40;0.40;;;3.10;99.90;;;;;;4397256;32;20069;-74
2020/12/28 04:19:39;;;;;;;0.70;0.70;;;3.10;99.90;;;;;;4383950;32;20074;-74
2020/12/28 04:22:04;;;;;;;0.50;0.50;;;3.00;99.90;;;;;;4384057;32;20090;-74
2020/12/28 04:24:30;;;;;;;0.77;0.60;;;2.90;99.90;;;;;;4383412;32;20122;-74
2020/12/28 04:26:55;;;;;;;0.40;0.40;;;3.00;99.90;;;;;;4384145;32;20070;-74
2020/12/28 04:29:21;;;;;;;0.30;0.30;;;3.00;99.90;;;;;;4384084;32;20405;-74
2020/12/28 04:31:46;;;;;;;0.40;0.40;;;3.00;99.90;;;;;;4383255;32;20063;-74
2020/12/28 04:34:12;;;;;;;0.40;0.40;;;2.90;99.90;;;;;;4385198;32;20083;-74
2020/12/28 04:36:37;;;;;;;0.37;0.37;;;3.00;99.90;;;;;;4387080;32;20509;-74
2020/12/28 04:39:05;;;;;;;0.52;0.52;;;3.00;99.90;;;;;;4386022;32;20087;-74
2020/12/28 04:41:31;;;;;;;0.30;0.30;;;3.00;99.90;;;;;;4386018;32;20073;-74
2020/12/28 04:43:57;;;;;;;0.45;0.45;;;3.00;99.90;;;;;;4385594;32;20445;-74
2020/12/28 04:46:23;;;;;;;0.50;0.50;;;3.10;99.90;;;;;;4385952;32;20098;-74
2020/12/28 04:48:49;;;;;;;0.60;0.60;;;3.10;99.90;;;;;;4385844;32;20074;-74
2020/12/28 04:51:15;;;;;;;0.40;0.40;;;3.10;99.90;;;;;;4386393;32;20067;-74
2020/12/28 04:53:44;;;;;;;2.37;1.30;;;3.00;99.90;;;;;;4386224;32;20082;-74
2020/12/28 04:56:09;;;;;;;2.92;1.17;;;3.00;99.90;;;;;;4386557;32;20070;-74
2020/12/28 04:58:36;;;;;;;0.60;0.60;;;3.00;99.90;;;;;;4386207;32;20440;-74
2020/12/28 05:01:02;;;;;;;0.37;0.37;;;3.10;99.90;;;;;;4385975;32;20126;-74
2020/12/28 05:03:28;;;;;;;0.40;0.40;;;3.00;99.90;;;;;;4387356;32;20079;-74
2020/12/28 05:05:53;;;;;;;0.77;0.77;;;3.00;99.90;;;;;;4390992;32;20062;-74
2020/12/28 05:08:20;;;;;;;0.40;0.40;;;3.00;99.90;;;;;;4401602;32;20086;-74
2020/12/28 05:10:46;;;;;;;0.30;0.30;;;3.10;99.90;;;;;;4401720;32;20162;-74
2020/12/28 05:13:13;;;;;;;0.37;0.37;;;3.10;99.90;;;;;;4400912;32;20206;-74
2020/12/28 05:15:55;;;;;;;0.50;0.50;;;3.00;99.90;;;;;;4401009;32;20417;-74
2020/12/28 05:18:21;;;;;;;5.78;0.98;;;3.00;99.90;;;;;;4393262;32;20074;-74
2020/12/28 05:20:48;;;;;;;0.70;0.70;;;3.00;99.90;;;;;;4385754;32;20091;-74
2020/12/28 05:23:14;;;;;;;1.70;0.80;;;3.10;99.90;;;;;;4385065;32;20078;-74
2020/12/28 05:25:45;;;;;;;0.70;0.65;;;3.10;99.90;;;;;;4385418;32;20082;-74
2020/12/28 05:28:27;;;;;;;0.70;0.70;;;3.10;99.90;;;;;;4385729;32;20529;-74
2020/12/28 05:30:59;;;;;;;0.43;0.43;;;3.10;99.90;;;;;;4385869;32;20079;-74
2020/12/28 05:33:30;;;;;;;0.40;0.40;;;3.10;99.90;;;;;;4385955;32;20066;-74
2020/12/28 05:35:56;;;;;;;0.52;0.52;;;3.20;99.90;;;;;;4385824;32;20066;-74
2020/12/28 05:38:23;;;;;;;0.30;0.30;;;3.20;99.90;;;;;;4385838;32;20433;-74
2020/12/28 05:41:00;;;;;;;0.47;0.47;;;3.20;99.90;;;;;;4385448;32;20429;-74
2020/12/28 05:43:29;;;;;;;0.40;0.40;;;3.20;99.90;;;;;;4386014;32;20082;-74
2020/12/28 05:45:54;;;;;;;0.40;0.40;;;3.20;99.90;;;;;;4385201;32;20062;-74
2020/12/28 05:48:23;;;;;;;0.37;0.37;;;3.20;99.90;;;;;;4385822;32;20425;-74
2020/12/28 05:50:55;;;;;;;0.52;0.52;;;3.20;99.90;;;;;;4385258;32;20070;-74
2020/12/28 05:53:23;;;;;;;1.33;1.23;;;3.30;99.90;;;;;;4385011;32;20556;-74
2020/12/28 05:55:49;;;;;;;0.60;0.60;;;3.30;99.90;;;;;;4384603;32;20086;-74
2020/12/28 05:58:17;;;;;;;0.40;0.40;;;3.20;99.90;;;;;;4385994;32;20101;-74
2020/12/28 06:00:45;;;;;;;0.82;0.82;;;3.30;99.90;;;;;;4385362;32;20070;-74
2020/12/28 06:03:11;;;;;;;0.68;0.68;;;3.30;99.90;;;;;;4394905;32;20073;-74
2020/12/28 06:05:37;;;;;;;0.30;0.30;;;3.30;99.90;;;;;;4400138;32;20428;-74
2020/12/28 06:08:03;;;;;;;2.47;1.35;;;3.30;99.90;;;;;;4398938;32;20121;-74
2020/12/28 06:10:33;;;;;;;0.40;0.40;;;3.30;99.90;;;;;;4387589;32;20510;-74
2020/12/28 06:12:58;;;;;;;0.37;0.37;;;3.40;99.90;;;;;;4400652;32;20078;-74
2020/12/28 06:15:24;;;;;;;0.50;0.50;;;3.40;99.90;;;;;;4400298;32;20074;-74
2020/12/28 06:17:50;;;;;;;6.75;0.95;;;3.20;99.90;;;;;;4393981;32;20087;-74
2020/12/28 06:20:15;;;;;;;0.37;0.37;;;3.20;99.90;;;;;;4385148;32;20087;-74
2020/12/28 06:22:42;;;;;;;0.30;0.30;;;3.20;99.90;;;;;;4385379;32;20430;-74
2020/12/28 06:25:12;;;;;;;1.15;1.05;;;3.20;99.90;;;;;;4384517;32;20200;-74
2020/12/28 06:27:40;;;;;;;0.40;0.40;;;3.10;99.90;;;;;;4384849;32;20066;-74
2020/12/28 06:30:13;;;;;;;0.30;0.30;;;3.20;99.90;;;;;;4385171;32;20074;-74
2020/12/28 06:32:39;;;;;;;0.77;0.77;;;3.20;99.90;;;;;;4384710;32;20070;-74
2020/12/28 06:35:09;;;;;;;0.60;0.60;;;3.20;99.90;;;;;;4384842;32;20066;-74
2020/12/28 06:37:39;;;;;;;0.50;0.50;;;3.20;99.90;;;;;;4385003;32;20078;-74
2020/12/28 06:40:05;;;;;;;1.45;1.05;;;3.20;99.90;;;;;;4385346;32;20066;-74
2020/12/28 06:42:30;;;;;;;0.40;0.40;;;3.20;99.90;;;;;;4384446;32;20417;-74
2020/12/28 06:44:56;;;;;;;0.43;0.43;;;3.20;99.90;;;;;;4384427;32;20079;-74
2020/12/28 06:47:24;;;;;;;0.40;0.40;;;3.20;99.90;;;;;;4384545;32;20070;-74
2020/12/28 06:49:51;;;;;;;0.47;0.47;;;3.20;99.90;;;;;;4384758;32;20492;-74
2020/12/28 06:52:17;;;;;;;0.40;0.40;;;3.10;99.90;;;;;;4384235;32;20074;-74
2020/12/28 06:54:43;;;;;;;0.40;0.40;;;3.10;99.90;;;;;;4384477;32;20080;-74
2020/12/28 06:57:10;;;;;;;0.50;0.50;;;3.10;99.90;;;;;;4387978;32;20503;-74
2020/12/28 06:59:36;;;;;;;1.25;0.62;;;3.10;99.90;;;;;;4400682;32;20066;-74
2020/12/28 07:02:03;;;;;;;1.55;0.60;;;3.10;99.90;;;;;;4401770;32;20082;-74
2020/12/28 07:04:34;;;;;;;1.05;0.95;;;3.10;99.90;;;;;;4399527;32;20062;-74
2020/12/28 07:07:03;;;;;;;0.50;0.50;;;3.10;99.90;;;;;;4387001;32;20066;-74
2020/12/28 07:09:28;;;;;;;0.40;0.40;;;3.20;99.90;;;;;;4398136;32;20062;-74
2020/12/28 07:11:54;;;;;;;0.40;0.40;;;3.10;99.90;;;;;;4388482;32;20555;-74
2020/12/28 07:14:20;;;;;;;0.30;0.30;;;3.10;99.90;;;;;;4383826;32;20181;-74
2020/12/28 07:16:53;;;;;;;0.32;0.32;;;3.00;99.90;;;;;;4384211;32;20074;-74
2020/12/28 07:19:18;;;;;;;0.43;0.43;;;3.00;99.90;;;;;;4399268;32;20086;-74
2020/12/28 07:21:44;;;;;;;0.50;0.50;;;3.00;99.90;;;;;;4385099;32;20074;-73
2020/12/28 07:24:09;;;;;;;0.35;0.35;;;3.00;99.90;;;;;;4384186;32;20058;-74
2020/12/28 07:26:36;;;;;;;0.40;0.40;;;3.00;99.90;;;;;;4384921;32;20405;-74
2020/12/28 07:29:10;;;;;;;0.70;0.70;;;3.00;99.90;;;;;;4383928;32;20523;-74
2020/12/28 07:31:35;;;;;;;0.40;0.40;;;3.00;99.90;;;;;;4384620;32;20393;-74
2020/12/28 07:34:01;;;;;;;1.27;1.15;;;3.00;99.90;;;;;;4384092;32;20088;-74
2020/12/28 07:36:26;;;;;;;0.37;0.37;;;3.00;99.90;;;;;;4384432;32;20631;-74
2020/12/28 07:38:52;;;;;;;0.30;0.30;;;3.00;99.90;;;;;;4384065;32;20070;-74
2020/12/28 07:41:20;;;;;;;0.60;0.60;;;3.10;99.90;;;;;;4383728;32;20077;-74
2020/12/28 07:43:51;;;;;;;0.40;0.40;;;3.10;99.90;;;;;;4383554;32;20075;-73
2020/12/28 07:46:43;;;;;;;0.62;0.55;;;3.10;99.90;;;;;;4394783;32;20065;-74
2020/12/28 07:49:27;;;;;;;0.55;0.55;;;3.20;99.90;;;;;;4388715;32;20070;-74
2020/12/28 07:52:14;;;;;;;0.35;0.35;;;3.20;99.90;;;;;;4398407;32;20070;-74
2020/12/28 07:54:46;;;;;;;0.60;0.60;;;3.20;99.90;;;;;;4373972;32;20061;-74
2020/12/28 07:57:20;;;;;;;0.30;0.30;;;3.20;99.90;;;;;;4390954;32;20457;-74
2020/12/28 07:59:58;;;;;;;1.00;0.73;;;3.30;99.90;;;;;;4398818;32;20065;-74
2020/12/28 08:02:45;;;;;;;0.68;0.60;;;3.20;99.90;;;;;;4398959;32;20518;-74
2020/12/28 08:05:12;;;;;;;0.40;0.40;;;3.20;99.90;;;;;;4387538;32;20074;-74
2020/12/28 08:07:38;;;;;;;0.40;0.40;;;3.30;99.90;;;;;;4384416;32;20066;-74
2020/12/28 08:10:08;;;;;;;0.30;0.30;;;3.40;99.90;;;;;;4383722;32;20366;-73
2020/12/28 08:12:36;;;;;;;0.50;0.50;;;3.40;99.90;;;;;;4398594;32;20066;-74
2020/12/28 08:15:02;;;;;;;0.40;0.40;;;3.40;99.90;;;;;;4398278;32;20066;-74
2020/12/28 08:17:28;;;;;;;0.40;0.40;;;3.40;99.90;;;;;;4395845;32;20086;-74
2020/12/28 08:20:11;;;;;;;0.40;0.40;;;3.40;99.90;;;;;;4383654;32;20066;-74
2020/12/28 08:22:40;;;;;;;0.50;0.50;;;3.40;99.90;;;;;;4382906;32;20178;-74
2020/12/28 08:25:07;;;;;;;0.60;0.60;;;3.50;99.90;;;;;;4383382;32;20078;-74
2020/12/28 08:27:33;;;;;;;7.78;0.82;;;3.50;99.90;;;;;;4384481;32;20094;-74
2020/12/28 08:30:00;;;;;;;0.30;0.30;;;3.50;99.90;;;;;;4384797;32;20499;-74
2020/12/28 08:32:27;;;;;;;0.95;0.82;;;3.50;99.90;;;;;;4383537;32;20074;-74
2020/12/28 08:34:55;;;;;;;0.90;0.75;;;3.50;99.90;;;;;;4383542;32;20479;-74
2020/12/28 08:37:20;;;;;;;0.40;0.40;;;3.50;99.90;;;;;;4384944;32;20121;-74
2020/12/28 08:39:46;;;;;;;0.30;0.30;;;3.60;99.90;;;;;;4383921;32;20591;-74
2020/12/28 08:42:12;;;;;;;0.57;0.57;;;3.60;99.90;;;;;;4378352;32;141665;-73
2020/12/28 08:44:41;;;;;;;0.50;0.50;;;3.60;99.90;;;;;;4382973;32;20426;-74
2020/12/28 08:47:12;;;;;;;0.40;0.40;;;3.70;99.90;;;;;;4383473;32;20532;-74
2020/12/28 08:49:39;;;;;;;0.68;0.68;;;3.70;99.90;;;;;;4383318;32;20070;-74
2020/12/28 08:52:08;;;;;;;0.45;0.45;;;3.80;99.90;;;;;;4383059;32;20066;-74
2020/12/28 08:54:34;;;;;;;0.45;0.45;;;3.70;99.90;;;;;;4383725;32;20067;-74
2020/12/28 08:57:00;;;;;;;0.60;0.60;;;3.70;99.90;;;;;;4389067;32;20110;-74
2020/12/28 08:59:25;;;;;;;0.40;0.40;;;3.80;99.90;;;;;;4398780;32;20548;-74
2020/12/28 09:01:52;;;;;;;0.30;0.30;;;3.70;99.90;;;;;;4399183;32;20066;-73
2020/12/28 09:04:18;;;;;;;1.08;0.80;;;3.70;99.90;;;;;;4398662;32;20429;-74
2020/12/28 09:06:43;;;;;;;0.60;0.60;;;3.70;99.90;;;;;;4388737;32;20066;-74
2020/12/28 09:09:09;;;;;;;0.40;0.40;;;3.80;99.90;;;;;;4382636;32;20077;-74
2020/12/28 09:11:34;;;;;;;2.37;1.08;;;3.80;99.90;;;;;;4392067;32;20122;-74
2020/12/28 09:14:00;;;;;;;0.50;0.50;;;3.80;99.90;;;;;;4399549;32;20082;-74
2020/12/28 09:16:26;;;;;;;0.47;0.47;;;3.80;99.90;;;;;;4398026;32;20070;-74
2020/12/28 09:18:51;;;;;;;0.30;0.30;;;3.80;99.90;;;;;;4385914;32;20495;-74
2020/12/28 09:21:17;;;;;;;0.35;0.35;;;3.70;99.90;;;;;;4384874;32;20083;-74
2020/12/28 09:23:42;;;;;;;0.43;0.43;;;3.70;99.90;;;;;;4385154;32;20083;-74
2020/12/28 09:26:08;;;;;;;0.50;0.50;;;3.60;99.90;;;;;;4385281;32;20058;-74
2020/12/28 09:28:33;;;;;;;0.95;0.93;;;3.60;99.90;;;;;;4385497;32;20063;-74
2020/12/28 09:30:58;;;;;;;0.40;0.40;;;3.60;99.90;;;;;;4385369;32;20066;-74
2020/12/28 09:33:24;;;;;;;0.40;0.40;;;3.60;99.90;;;;;;4385548;32;20078;-74
2020/12/28 09:35:49;;;;;;;0.30;0.30;;;3.60;99.90;;;;;;4385153;32;20507;-74
2020/12/28 09:38:15;;;;;;;2.58;1.20;;;3.70;99.90;;;;;;4386311;32;20127;-74
2020/12/28 09:40:40;;;;;;;1.10;0.85;;;3.80;99.90;;;;;;4385332;32;20062;-74
2020/12/28 09:43:06;;;;;;;0.75;0.62;;;3.70;99.90;;;;;;4385061;32;20074;-74
2020/12/28 09:45:38;;;;;;;0.88;0.60;;;3.80;99.90;;;;;;4385040;32;20087;-74
2020/12/28 09:48:05;;;;;;;0.40;0.40;;;3.80;99.90;;;;;;4385474;32;20525;-74
2020/12/28 09:50:31;;;;;;;0.57;0.57;;;3.90;99.90;;;;;;4385076;32;20062;-74
2020/12/28 09:52:56;;;;;;;0.40;0.40;;;3.90;99.90;;;;;;4385412;32;20074;-74
2020/12/28 09:55:22;;;;;;;0.40;0.40;;;4.00;99.90;;;;;;4385718;32;20524;-74
2020/12/28 09:57:48;;;;;;;0.45;0.45;;;4.00;99.90;;;;;;4396413;32;20069;-74
2020/12/28 10:00:14;;;;;;;0.50;0.50;;;4.00;99.90;;;;;;4399954;32;20078;-74
2020/12/28 10:02:42;;;;;;;0.60;0.60;;;4.10;99.90;;;;;;4400878;32;20074;-74
2020/12/28 10:05:09;;;;;;;0.40;0.40;;;4.10;99.90;;;;;;4400313;32;20145;-74
2020/12/28 10:07:34;;;;;;;0.37;0.37;;;4.10;99.90;;;;;;4385988;32;20058;-74
2020/12/28 10:10:01;;;;;;;0.50;0.50;;;4.10;99.90;;;;;;4385388;32;20159;-74
2020/12/28 10:12:27;;;;;;;0.75;0.75;;;4.20;99.90;;;;;;4399895;32;20074;-74
2020/12/28 10:14:53;;;;;;;0.32;0.32;;;4.10;99.90;;;;;;4399979;32;20062;-74
2020/12/28 10:17:18;;;;;;;0.50;0.50;;;4.20;99.90;;;;;;4398191;32;20122;-74
2020/12/28 10:19:44;;;;;;;0.40;0.40;;;4.20;99.90;;;;;;4384991;32;20492;-74
2020/12/28 10:22:11;;;;;;;0.40;0.40;;;4.20;99.90;;;;;;4384603;32;20118;-74
2020/12/28 10:24:37;;;;;;;0.55;0.55;;;4.40;99.90;;;;;;4385602;32;20792;-74
2020/12/28 10:27:02;;;;;;;0.70;0.70;;;4.50;99.90;;;;;;4385845;32;20066;-74
2020/12/28 10:29:28;;;;;;;1.05;0.50;;;4.50;99.90;;;;;;4385168;32;20070;-74
2020/12/28 10:31:57;;;;;;;0.30;0.30;;;4.40;99.90;;;;;;4384148;32;20634;-74
2020/12/28 10:34:23;;;;;;;1.55;0.90;;;4.50;99.90;;;;;;4384418;32;20070;-75
2020/12/28 10:36:49;;;;;;;0.50;0.50;;;4.70;99.90;;;;;;4385386;32;20112;-75
2020/12/28 10:39:14;;;;;;;0.37;0.37;;;4.60;99.90;;;;;;4385263;32;20110;-75
2020/12/28 10:41:40;;;;;;;0.45;0.45;;;4.70;99.90;;;;;;4384534;32;20075;-75
2020/12/28 10:44:05;;;;;;;0.50;0.50;;;4.80;99.90;;;;;;4385179;32;20138;-73
2020/12/28 10:46:31;;;;;;;0.30;0.30;;;4.70;99.90;;;;;;4385518;32;20077;-73
2020/12/28 10:48:57;;;;;;;0.43;0.43;;;4.80;99.90;;;;;;4384961;32;20066;-73
2020/12/28 10:51:22;;;;;;;0.50;0.50;;;4.80;99.90;;;;;;4385187;32;20078;-74
2020/12/28 10:53:48;;;;;;;0.70;0.70;;;5.00;99.90;;;;;;4384526;32;20062;-74
2020/12/28 10:56:21;;;;;;;0.40;0.40;;;5.00;99.90;;;;;;4385935;32;20445;-73
2020/12/28 10:58:47;;;;;;;0.40;0.40;;;5.00;99.90;;;;;;4400258;32;20059;-74
2020/12/28 11:01:12;;;;;;;2.33;1.50;;;4.90;99.90;;;;;;4400198;32;20071;-74
2020/12/28 11:03:38;;;;;;;0.52;0.52;;;5.00;99.90;;;;;;4399304;32;20062;-74
2020/12/28 11:06:03;;;;;;;0.60;0.60;;;4.90;99.90;;;;;;4393720;32;20070;-73
2020/12/28 11:08:30;;;;;;;0.47;0.47;;;4.90;99.90;;;;;;4385415;32;20517;-73
2020/12/28 11:10:55;;;;;;;0.88;0.77;;;5.00;99.90;;;;;;4390231;32;20070;-75
2020/12/28 11:13:21;;;;;;;0.40;0.40;;;4.90;99.90;;;;;;4400135;32;20553;-73
2020/12/28 11:15:46;;;;;;;1.08;0.70;;;5.00;99.90;;;;;;4399998;32;20117;-73
2020/12/28 11:18:12;;;;;;;1.65;0.68;;;5.10;99.90;;;;;;4391430;32;20062;-74
2020/12/28 11:20:37;;;;;;;0.37;0.37;;;5.10;99.90;;;;;;4384860;32;20504;-73
2020/12/28 11:23:03;;;;;;;1.45;0.80;;;5.20;99.90;;;;;;4383783;32;20070;-74
2020/12/28 11:25:28;;;;;;;1.45;0.82;;;5.20;99.90;;;;;;4384694;32;20397;-73
2020/12/28 11:27:54;;;;;;;2.85;0.77;;;5.20;99.90;;;;;;4384089;32;20066;-73
2020/12/28 11:30:19;;;;;;;0.30;0.30;;;5.20;99.90;;;;;;4384415;32;20609;-73
2020/12/28 11:32:45;;;;;;;0.40;0.40;;;5.30;99.90;;;;;;4384544;32;20065;-73
2020/12/28 11:35:10;;;;;;;1.37;0.70;;;5.40;99.90;;;;;;4384449;32;20059;-73
2020/12/28 11:37:36;;;;;;;0.40;0.40;;;5.30;99.90;;;;;;4384575;32;20070;-73
2020/12/28 11:40:03;;;;;;;0.45;0.45;;;5.30;99.90;;;;;;4384210;32;20063;-75
2020/12/28 11:42:29;;;;;;;0.55;0.55;;;5.40;99.90;;;;;;4384357;32;20058;-75
2020/12/28 11:44:55;;;;;;;0.40;0.40;;;5.40;99.90;;;;;;4384028;32;20070;-74
2020/12/28 11:47:21;;;;;;;0.40;0.40;;;5.40;99.90;;;;;;4384641;32;20452;-74
2020/12/28 11:49:46;;;;;;;1.67;1.23;;;5.40;99.90;;;;;;4384170;32;20160;-75
2020/12/28 11:52:13;;;;;;;0.40;0.40;;;5.40;99.90;;;;;;4383250;32;20446;-75
2020/12/28 11:54:38;;;;;;;0.57;0.57;;;5.30;99.90;;;;;;4384354;32;20449;-74
2020/12/28 11:57:04;;;;;;;0.40;0.40;;;5.20;99.90;;;;;;4391136;32;20078;-75
2020/12/28 11:59:29;;;;;;;0.43;0.43;;;5.20;99.90;;;;;;4399372;32;20070;-74
2020/12/28 12:01:55;;;;;;;0.45;0.45;;;5.20;99.90;;;;;;4399672;32;20074;-74
2020/12/28 12:04:48;;;;;;;0.30;0.30;;;5.20;99.90;;;;;;4399463;32;20062;-74
2020/12/28 12:07:06;;;;;;;0.57;0.57;;;5.10;99.90;;;;;;4374881;32;20095;-74
2020/12/28 12:09:31;;;;;;;1.30;0.77;;;5.10;99.90;;;;;;4384145;32;20066;-74
2020/12/28 12:11:56;;;;;;;1.35;0.85;;;5.10;99.90;;;;;;4395197;32;20081;-74
2020/12/28 12:14:22;;;;;;;0.60;0.60;;;5.10;99.90;;;;;;4398817;32;20069;-74
2020/12/28 12:16:47;;;;;;;0.30;0.30;;;5.10;99.90;;;;;;4399280;32;20102;-74
2020/12/28 12:19:13;;;;;;;0.30;0.30;;;5.10;99.90;;;;;;4384565;32;20571;-74
2020/12/28 12:21:38;;;;;;;16.87;0.65;;;5.20;99.90;;;;;;4383567;32;20062;-74
2020/12/28 12:24:04;;;;;;;0.40;0.40;;;5.30;99.90;;;;;;4383055;32;20075;-73
2020/12/28 12:26:29;;;;;;;5.40;0.90;;;5.40;99.90;;;;;;4384073;32;20167;-74
2020/12/28 12:28:55;;;;;;;1.15;1.05;;;5.30;99.90;;;;;;4383850;32;20083;-74
2020/12/28 12:31:21;;;;;;;2.53;1.70;;;5.30;99.90;;;;;;4385051;32;20082;-74
2020/12/28 12:33:47;;;;;;;0.32;0.32;;;5.40;99.90;;;;;;4384131;32;20126;-74
2020/12/28 12:36:13;;;;;;;0.37;0.37;;;5.40;99.90;;;;;;4383700;32;20229;-74
2020/12/28 12:38:39;;;;;;;0.43;0.43;;;5.40;99.90;;;;;;4383852;32;20067;-74
2020/12/28 12:41:05;;;;;;;0.50;0.50;;;5.40;99.90;;;;;;4383651;32;20118;-74
2020/12/28 12:43:31;;;;;;;0.40;0.40;;;5.50;99.90;;;;;;4382753;32;20066;-74
2020/12/28 12:45:57;;;;;;;0.30;0.30;;;5.40;99.90;;;;;;4383719;32;20066;-74
2020/12/28 12:48:23;;;;;;;0.68;0.68;;;5.40;99.90;;;;;;4383367;32;20079;-74
2020/12/28 12:50:49;;;;;;;0.62;0.62;;;5.40;99.90;;;;;;4383295;32;20063;-73
2020/12/28 12:53:18;;;;;;;0.45;0.45;;;5.30;99.90;;;;;;4383748;32;20062;-74
2020/12/28 12:55:43;;;;;;;1.35;0.77;;;5.30;99.90;;;;;;4383788;32;20560;-74